Thunder radar more information blitzortung!


Radar de pluja more information rain snow radar


Visita la nostra xarxa de llocs de meteo:

Template documentation
and downloads

And another site



No particular awareness of the weather is required.    There are no Weather-warnings

Pagina Historial Weather Underground text

Diari Resum Juliol 25, 2017 Unitats:  Imperial    Mètric   Tant
« Previous Dia
SegĂźent Dia »
Diari Setmana Mensual Anual Personalitzada
  Maxima: Minima: Media:
Temperatura: 87.3 °F 64.8 °F 77.2 °F
Punt de rosada: 64 °F 51.6 °F 58.1 °F
Humitat: 75 % 35 % 53 %
Wind Speed: 15.2 mph 0 mph 5 mph
RĂ fegues de vent: 15.2 mph - -
Vent:- - SSW
Pression baro: 30 in 29.8 in -
Precipitacions: 0 in    
Historical Graphs
 
 
Dades de taula per Juliol 25, 2017
Temps Temperatura Punt de rosada Pression baro Vent Wind Speed RĂ fegues de vent Humitat Rainfall Rate (Hourly)
00:03 72.5 °F 63.7 °F 29.9 in NE 2.9 mph 2.9 mph 74 % 0 in
00:05 68.5 °F 53.6 °F 29.9 in WSW 3 mph 3 mph 59 % 0 in
00:08 72.5 °F 64 °F 30 in East 2.3 mph 2.3 mph 75 % 0 in
00:15 68.2 °F 53.2 °F 29.9 in WSW 2 mph 3 mph 59 % 0 in
00:25 67.8 °F 53.4 °F 29.9 in WNW 1 mph 4 mph 60 % 0 in
00:35 67.5 °F 53.1 °F 29.9 in NNW 1 mph 2 mph 60 % 0 in
00:45 67.1 °F 52.7 °F 29.9 in NNW 1 mph 1 mph 60 % 0 in
00:55 66.7 °F 52.3 °F 29.9 in WSW 2 mph 3 mph 60 % 0 in
01:05 66.6 °F 52.2 °F 29.9 in SW 1 mph 3 mph 60 % 0 in
01:15 66.2 °F 52.3 °F 29.9 in SW 1 mph 2 mph 61 % 0 in
01:25 66 °F 52.5 °F 29.9 in WSW 1 mph 2 mph 62 % 0 in
01:30 65.8 °F 52.5 °F 29.9 in WSW 2 mph 2 mph 62 % 0 in
01:40 65.5 °F 52.5 °F 29.9 in Calm   2 mph 63 % 0 in
01:50 65.3 °F 52.3 °F 29.9 in WSW 1 mph 2 mph 63 % 0 in
02:00 65.1 °F 52.2 °F 29.9 in Calm   1 mph 63 % 0 in
02:10 65.1 °F 52.5 °F 29.9 in SW 1 mph 2 mph 64 % 0 in
02:20 64.8 °F 52.3 °F 29.9 in SW 1 mph 1 mph 64 % 0 in
02:30 65.3 °F 52.9 °F 29.9 in WSW 1 mph 2 mph 64 % 0 in
02:40 65.8 °F 53.2 °F 29.9 in WSW 1 mph 2 mph 64 % 0 in
02:50 66.6 °F 53.6 °F 29.9 in WSW 1 mph 2 mph 63 % 0 in
03:00 67.6 °F 54.1 °F 29.9 in WSW 1 mph 3 mph 62 % 0 in
03:10 67.8 °F 54 °F 29.9 in WSW 1 mph 2 mph 61 % 0 in
03:20 68 °F 53.6 °F 29.9 in West 2 mph 3 mph 60 % 0 in
03:30 69.1 °F 54.1 °F 29.9 in WNW 1 mph 3 mph 59 % 0 in
03:40 70.2 °F 55.2 °F 29.9 in WNW 2 mph 2 mph 59 % 0 in
03:50 71.6 °F 55.6 °F 29.9 in NW 1 mph 3 mph 57 % 0 in
04:00 70.5 °F 55 °F 29.9 in Calm   3 mph 58 % 0 in
04:10 70.5 °F 54.5 °F 29.9 in NNW 1 mph 2 mph 57 % 0 in
04:20 69.8 °F 54.3 °F 29.9 in WSW 2 mph 3 mph 58 % 0 in
04:30 70.7 °F 54.7 °F 29.9 in SW 1 mph 3 mph 57 % 0 in
04:40 72.5 °F 55.9 °F 29.9 in SW 2 mph 2 mph 56 % 0 in
04:50 73.4 °F 56.1 °F 29.9 in WSW 2 mph 3 mph 55 % 0 in
05:00 73.6 °F 55.9 °F 29.9 in WSW 1 mph 4 mph 54 % 0 in
05:10 75 °F 56.7 °F 29.9 in WSW 1 mph 4 mph 53 % 0 in
05:20 76.6 °F 57.7 °F 29.9 in SSW 1 mph 4 mph 52 % 0 in
05:30 76.6 °F 57.2 °F 29.9 in SW 2 mph 4 mph 51 % 0 in
05:40 76.8 °F 56.8 °F 29.9 in SW 2 mph 5 mph 50 % 0 in
10:45 76.6 °F 56.7 °F 29.9 in West 2.3 mph 2.3 mph 50 % 0 in
10:50 76.3 °F 55.8 °F 29.9 in WNW 3.5 mph 3.5 mph 49 % 0 in
10:51 76.6 °F 56.7 °F 29.9 in SW 3.5 mph 3.5 mph 50 % 0 in
10:56 77.7 °F 56.5 °F 29.9 in SW 3.5 mph 3.5 mph 48 % 0 in
11:01 77 °F 56.5 °F 29.9 in WNW 3.5 mph 3.5 mph 49 % 0 in
11:06 76.5 °F 55.9 °F 29.9 in West 2.3 mph 2.3 mph 49 % 0 in
11:11 76.5 °F 55.9 °F 29.9 in WSW 4.6 mph 4.6 mph 49 % 0 in
11:16 76.8 °F 55.6 °F 29.9 in SW 2.3 mph 2.3 mph 48 % 0 in
11:21 77.9 °F 55.9 °F 29.9 in South 3.3 mph 3.3 mph 47 % 0 in
11:26 78.8 °F 56.8 °F 29.9 in SW 4.6 mph 4.6 mph 47 % 0 in
11:31 79.3 °F 57.4 °F 29.9 in West 2.3 mph 2.3 mph 47 % 0 in
11:36 80.2 °F 58.3 °F 29.9 in West 6.2 mph 6.2 mph 47 % 0 in
11:41 80.6 °F 57.4 °F 29.9 in WNW 5.8 mph 5.8 mph 45 % 0 in
11:46 80.8 °F 56.8 °F 29.9 in WSW 4.6 mph 4.6 mph 44 % 0 in
11:51 81.1 °F 56.5 °F 29.9 in WNW 5.8 mph 5.8 mph 43 % 0 in
11:56 81.3 °F 55.9 °F 29.9 in WNW 5.8 mph 5.8 mph 42 % 0 in
12:01 81.5 °F 56.1 °F 29.9 in SSE 5.8 mph 5.8 mph 42 % 0 in
12:06 82.8 °F 57.4 °F 29.9 in WSW 4.3 mph 4.3 mph 42 % 0 in
12:11 83.1 °F 57 °F 29.9 in West 5.8 mph 5.8 mph 41 % 0 in
12:16 83.3 °F 57 °F 29.9 in North 3.5 mph 3.8 mph 41 % 0 in
12:21 83.8 °F 56.1 °F 29.9 in SW 4.9 mph 4.9 mph 39 % 0 in
12:26 83.8 °F 56.8 °F 29.9 in WSW 4.6 mph 4.6 mph 40 % 0 in
12:31 83.1 °F 55.6 °F 29.9 in SW 5.8 mph 5.8 mph 39 % 0 in
12:36 83.7 °F 56.1 °F 29.9 in WSW 5.9 mph 5.9 mph 39 % 0 in
12:41 84 °F 54.9 °F 29.9 in SE 2.3 mph 2.3 mph 37 % 0 in
12:46 84 °F 55.8 °F 29.9 in SSW 4.6 mph 4.6 mph 38 % 0 in
12:51 84.2 °F 54.3 °F 29.9 in SW 8.1 mph 8.1 mph 36 % 0 in
12:56 85.5 °F 56.1 °F 29.9 in WSW 4.6 mph 4.6 mph 37 % 0 in
13:01 85.5 °F 56.1 °F 29.9 in SW 5.6 mph 5.6 mph 37 % 0 in
13:06 85.6 °F 55.6 °F 29.9 in SSW 4.9 mph 4.9 mph 36 % 0 in
13:11 86.7 °F 56.7 °F 29.9 in SSE 3.8 mph 3.8 mph 36 % 0 in
13:16 86.7 °F 56.7 °F 29.9 in SSW 3.5 mph 3.5 mph 36 % 0 in
13:21 86 °F 55.9 °F 29.9 in South 5.8 mph 5.8 mph 36 % 0 in
13:26 86 °F 55.2 °F 29.9 in SSE 5.8 mph 5.8 mph 35 % 0 in
13:31 85.8 °F 55.8 °F 29.9 in South 2.3 mph 2.3 mph 36 % 0 in
13:36 86 °F 55.9 °F 29.9 in WSW 6.9 mph 6.9 mph 36 % 0 in
13:41 85.6 °F 55.6 °F 29.9 in East 3.8 mph 3.8 mph 36 % 0 in
13:46 86.5 °F 56.5 °F 29.9 in SW 6.2 mph 6.2 mph 36 % 0 in
13:51 86.5 °F 55.6 °F 29.9 in South 3.1 mph 3.1 mph 35 % 0 in
13:57 85.8 °F 56.5 °F 29.9 in SSW 9.2 mph 9.2 mph 37 % 0 in
13:58 86.2 °F 56.8 °F 29.9 in WSW 4.6 mph 4.6 mph 37 % 0 in
14:03 86.9 °F 58.3 °F 29.9 in SW 5.8 mph 5.8 mph 38 % 0 in
14:08 86.4 °F 57.7 °F 29.8 in SW 4.6 mph 4.6 mph 38 % 0 in
14:13 87.3 °F 58.6 °F 29.8 in SW 8.1 mph 8.1 mph 38 % 0 in
14:18 86.2 °F 56.8 °F 29.8 in WSW 10.4 mph 10.4 mph 37 % 0 in
14:23 86.4 °F 57 °F 29.9 in SW 8.1 mph 8.1 mph 37 % 0 in
14:28 86 °F 56.7 °F 29.9 in WSW 8.1 mph 8.1 mph 37 % 0 in
14:33 85.3 °F 56.8 °F 29.9 in WSW 11.5 mph 11.5 mph 38 % 0 in
14:38 85.3 °F 57.6 °F 29.9 in SW 7.8 mph 7.8 mph 39 % 0 in
14:43 85.5 °F 57.7 °F 29.9 in SW 10 mph 10 mph 39 % 0 in
14:48 85.3 °F 57.6 °F 29.9 in SE 10.4 mph 10.4 mph 39 % 0 in
14:53 84.7 °F 57 °F 29.9 in WSW 11.2 mph 11.2 mph 39 % 0 in
14:58 84.7 °F 57 °F 29.9 in WSW 12.8 mph 12.8 mph 39 % 0 in
15:03 84 °F 57 °F 29.9 in SW 5.8 mph 5.8 mph 40 % 0 in
15:08 84.2 °F 57.4 °F 29.9 in SSW 15 mph 15 mph 40 % 0 in
15:13 84.6 °F 57.6 °F 29.9 in WNW 10.7 mph 10.7 mph 40 % 0 in
15:18 83.8 °F 57.6 °F 29.9 in South 11.5 mph 11.5 mph 41 % 0 in
15:23 83.8 °F 57.6 °F 29.9 in SW 12.7 mph 12.7 mph 41 % 0 in
15:28 83.8 °F 58.3 °F 29.9 in South 8.1 mph 8.1 mph 42 % 0 in
15:33 84.2 °F 57.9 °F 29.9 in WSW 8.1 mph 8.1 mph 41 % 0 in
15:38 83.8 °F 58.3 °F 29.9 in SW 15.2 mph 15.2 mph 42 % 0 in
15:43 82.9 °F 58.1 °F 29.9 in SSW 12.7 mph 12.7 mph 43 % 0 in
15:48 83.7 °F 58.8 °F 29.9 in SSW 5.8 mph 6 mph 43 % 0 in
15:53 83.7 °F 58.8 °F 29.9 in SW 13.8 mph 13.8 mph 43 % 0 in
15:58 83.5 °F 59.4 °F 29.9 in WSW 6.9 mph 6.9 mph 44 % 0 in
16:03 83.8 °F 59 °F 29.9 in South 5.8 mph 6.2 mph 43 % 0 in
16:08 83.1 °F 58.3 °F 29.9 in WNW 12.7 mph 12.7 mph 43 % 0 in
16:13 82.8 °F 58.6 °F 29.9 in South 15 mph 15 mph 44 % 0 in
16:18 82.9 °F 58.8 °F 29.9 in SSE 11.5 mph 11.5 mph 44 % 0 in
16:23 83.1 °F 58.8 °F 29.8 in WNW 9.2 mph 9.2 mph 44 % 0 in
16:28 84.2 °F 59.4 °F 29.8 in SSW 9.2 mph 9.2 mph 43 % 0 in
16:29 84.4 °F 59.4 °F 29.8 in WSW 12.1 mph 12.1 mph 43 % 0 in
16:34 83.7 °F 59.4 °F 29.9 in SW 10.9 mph 10.9 mph 44 % 0 in
16:39 83.3 °F 59.2 °F 29.9 in WSW 12.7 mph 12.7 mph 44 % 0 in
16:44 83.1 °F 58.8 °F 29.9 in South 9.2 mph 9.2 mph 44 % 0 in
16:49 83.8 °F 60.3 °F 29.9 in WSW 4.6 mph 4.6 mph 45 % 0 in
16:54 83.8 °F 59.5 °F 29.9 in WSW 8.5 mph 8.5 mph 44 % 0 in
16:59 84 °F 60.4 °F 29.9 in SW 4.6 mph 4.6 mph 45 % 0 in
17:04 84 °F 59.7 °F 29.9 in SSW 6.9 mph 7.4 mph 44 % 0 in
17:09 83.1 °F 58.8 °F 29.9 in SW 9.2 mph 9.2 mph 44 % 0 in
17:14 83.3 °F 59.2 °F 29.9 in WSW 12.7 mph 12.7 mph 44 % 0 in
17:19 83.1 °F 59.5 °F 29.9 in SSW 8.1 mph 8.1 mph 45 % 0 in
17:24 82.9 °F 59.4 °F 29.9 in WSW 6.9 mph 6.9 mph 45 % 0 in
17:25 82.9 °F 59.4 °F 29.9 in WSW 6.9 mph 6.9 mph 45 % 0 in
17:30 82.9 °F 59.4 °F 29.9 in South 8.1 mph 8.1 mph 45 % 0 in
17:35 83.1 °F 59.5 °F 29.9 in SSW 10.4 mph 10.4 mph 45 % 0 in
17:40 83.3 °F 59.7 °F 29.9 in SW 8.1 mph 8.1 mph 45 % 0 in
17:45 82.8 °F 59.4 °F 29.9 in SE 8.1 mph 8.1 mph 45 % 0 in
17:50 82.6 °F 59.2 °F 29.9 in SW 9.2 mph 9.2 mph 45 % 0 in
17:55 82.4 °F 58.8 °F 29.9 in South 4.6 mph 4.6 mph 45 % 0 in
18:00 81.3 °F 58.6 °F 29.9 in West 12.7 mph 12.7 mph 46 % 0 in
18:05 80.8 °F 58.1 °F 29.9 in WSW 12.7 mph 12.7 mph 46 % 0 in
18:10 81 °F 58.3 °F 29.9 in South 9.8 mph 9.8 mph 46 % 0 in
18:15 81.1 °F 59 °F 29.9 in WSW 9.2 mph 9.2 mph 47 % 0 in
18:20 80.8 °F 58.6 °F 29.8 in SSE 9.2 mph 9.2 mph 47 % 0 in
18:25 80.8 °F 58.6 °F 29.8 in SW 9.7 mph 9.7 mph 47 % 0 in
18:30 80.8 °F 58.6 °F 29.8 in South 10.9 mph 10.9 mph 47 % 0 in
18:35 80.6 °F 59.2 °F 29.8 in WSW 8.1 mph 8.1 mph 48 % 0 in
18:40 80.6 °F 59.2 °F 29.8 in SSW 13.8 mph 13.8 mph 48 % 0 in
18:45 80.8 °F 59.4 °F 29.8 in South 8.1 mph 8.1 mph 48 % 0 in
18:50 80.6 °F 59.2 °F 29.9 in WSW 8.1 mph 8.1 mph 48 % 0 in
18:55 80.2 °F 59.9 °F 29.9 in WSW 9.2 mph 9.2 mph 50 % 0 in
18:56 80.2 °F 59.9 °F 29.9 in South 9.2 mph 9.2 mph 50 % 0 in
19:01 80.6 °F 59.7 °F 29.9 in South 5.8 mph 5.8 mph 49 % 0 in
19:06 80.2 °F 59.9 °F 29.8 in SW 7.4 mph 7.4 mph 50 % 0 in
19:11 80.1 °F 59.7 °F 29.8 in SSW 6.9 mph 6.9 mph 50 % 0 in
19:16 80.2 °F 60.4 °F 29.8 in SW 8.1 mph 8.1 mph 51 % 0 in
19:17 80.1 °F 60.3 °F 29.8 in South 6.9 mph 6.9 mph 51 % 0 in
19:22 79.7 °F 60.1 °F 29.8 in SSW 5.8 mph 5.8 mph 51 % 0 in
19:27 79.7 °F 60.1 °F 29.8 in ENE 5.9 mph 5.9 mph 51 % 0 in
19:32 79.3 °F 60.3 °F 29.8 in South 8.1 mph 8.1 mph 52 % 0 in
19:37 79.2 °F 60.1 °F 29.8 in SSW 6.9 mph 6.9 mph 52 % 0 in
19:42 79.2 °F 60.1 °F 29.8 in SW 5.8 mph 5.8 mph 52 % 0 in
19:47 78.6 °F 59.5 °F 29.8 in SW 6.9 mph 6.9 mph 52 % 0 in
19:52 78.3 °F 59.2 °F 29.8 in SW 4.6 mph 4.6 mph 52 % 0 in
19:57 77.7 °F 59.2 °F 29.8 in SSW 6.9 mph 6.9 mph 53 % 0 in
20:02 77.4 °F 58.8 °F 29.8 in South 6.9 mph 6.9 mph 53 % 0 in
20:07 77.4 °F 59.4 °F 29.8 in SSE 3.5 mph 3.5 mph 54 % 0 in
20:12 77.4 °F 59.4 °F 29.8 in SW 3.5 mph 3.5 mph 54 % 0 in
20:15 70.7 °F 61.5 °F 29.9 in NE 2 mph 2 mph 73 % 0 in
20:17 77 °F 59.2 °F 29.8 in SW 5.8 mph 5.8 mph 54 % 0 in
20:22 76.6 °F 59.7 °F 29.9 in South 3.5 mph 3.5 mph 56 % 0 in
20:24 76.6 °F 59.7 °F 29.9 in SW 4.6 mph 4.6 mph 56 % 0 in
20:25 70.5 °F 61.3 °F 29.9 in NE 2 mph 2 mph 73 % 0 in
20:29 76.3 °F 59.4 °F 29.9 in SW 3.5 mph 3.5 mph 56 % 0 in
20:34 76.5 °F 59.5 °F 29.9 in SE 2.3 mph 2.4 mph 56 % 0 in
20:35 70.3 °F 61.7 °F 29.9 in NE 1 mph 2 mph 74 % 0 in
20:39 76.3 °F 60.4 °F 29.9 in ESE 6.9 mph 6.9 mph 58 % 0 in
20:44 75.7 °F 59.9 °F 29.9 in South 5.8 mph 5.8 mph 58 % 0 in
20:45 70.3 °F 61.7 °F 29.9 in ENE 1 mph 3 mph 74 % 0 in
20:49 75.6 °F 60.3 °F 29.9 in SSW 3.5 mph 3.5 mph 59 % 0 in
20:54 75.2 °F 59.9 °F 29.9 in SE 8.1 mph 8.1 mph 59 % 0 in
20:55 70.3 °F 61.7 °F 29.9 in ENE 1 mph 3 mph 74 % 0 in
20:59 75.2 °F 60.4 °F 29.9 in SSE 4.6 mph 4.6 mph 60 % 0 in
21:04 75 °F 60.6 °F 29.9 in South 3.5 mph 3.5 mph 61 % 0 in
21:05 70.2 °F 61.9 °F 29.9 in ENE 1 mph 3 mph 75 % 0 in
21:09 74.8 °F 61 °F 29.9 in East 6.4 mph 6.4 mph 62 % 0 in
21:14 74.5 °F 61.2 °F 29.9 in ESE 5.8 mph 5.8 mph 63 % 0 in
21:15 70.2 °F 61.9 °F 29.9 in East 1 mph 2 mph 75 % 0 in
21:19 74.3 °F 61.3 °F 29.9 in South 4.6 mph 4.6 mph 64 % 0 in
21:24 74.1 °F 61.2 °F 29.9 in ESE 5.8 mph 5.8 mph 64 % 0 in
21:25 70.2 °F 61.9 °F 29.9 in Calm   2 mph 75 % 0 in
21:29 73.9 °F 61 °F 29.9 in ESE 6.9 mph 6.9 mph 64 % 0 in
21:34 73.9 °F 61.3 °F 29.8 in SE 5.8 mph 5.8 mph 65 % 0 in
21:35 70 °F 61.3 °F 29.9 in ESE 1 mph   74 % 0 in
21:39 73.8 °F 61.3 °F 29.8 in SSE 4.6 mph 4.6 mph 65 % 0 in
21:44 73.8 °F 61.3 °F 29.8 in SE 2 mph 2 mph 65 % 0 in
21:45 70 °F 61.3 °F 29.9 in Calm     74 % 0 in
21:49 73.8 °F 61.7 °F 29.9 in SSE 2.6 mph 2.6 mph 66 % 0 in
21:54 73.8 °F 61.3 °F 29.9 in SE 2.4 mph 2.4 mph 65 % 0 in
21:55 70 °F 61.3 °F 29.9 in SW 1 mph 2 mph 74 % 0 in
21:59 73.6 °F 61.5 °F 29.9 in ESE 4.7 mph 4.7 mph 66 % 0 in
22:04 73.4 °F 61.3 °F 29.9 in SSE 3.5 mph 3.5 mph 66 % 0 in
22:05 70 °F 61.7 °F 29.9 in SW 2 mph 2 mph 75 % 0 in
22:09 73.4 °F 61.3 °F 29.9 in ESE 3.5 mph 3.5 mph 66 % 0 in
22:14 73.2 °F 61.5 °F 29.9 in ENE 3.5 mph 3.5 mph 67 % 0 in
22:15 69.8 °F 59.5 °F 29.9 in WSW 2 mph 4 mph 70 % 0 in
22:19 73 °F 61.9 °F 29.9 in East 3.5 mph 3.5 mph 68 % 0 in
22:24 72.9 °F 61.7 °F 29.9 in ENE 2.3 mph 2.3 mph 68 % 0 in
22:25 69.8 °F 57 °F 29.8 in WSW 3 mph 4 mph 64 % 0 in
22:29 73 °F 61.9 °F 29.9 in ESE 3.5 mph 3.5 mph 68 % 0 in
22:34 73 °F 61.3 °F 29.9 in ESE 2 mph 2 mph 67 % 0 in
22:35 69.6 °F 55.6 °F 29.9 in WSW 2 mph 5 mph 61 % 0 in
22:39 73 °F 61.3 °F 29.9 in East 2.9 mph 2.9 mph 67 % 0 in
22:44 73 °F 61.9 °F 29.9 in NE 3.5 mph 3.5 mph 68 % 0 in
22:45 69.4 °F 54.5 °F 29.9 in WSW 2 mph 3 mph 59 % 0 in
22:49 72.9 °F 61.7 °F 29.9 in East 1.2 mph 1.2 mph 68 % 0 in
22:54 73 °F 61.9 °F 29.9 in ENE 3.5 mph 3.5 mph 68 % 0 in
22:55 69.4 °F 54.5 °F 29.9 in West 2 mph 3 mph 59 % 0 in
22:59 72.9 °F 61.7 °F 29.9 in ENE 2.4 mph 2.4 mph 68 % 0 in
23:04 72.9 °F 61.7 °F 29.9 in ENE 3.3 mph 3.3 mph 68 % 0 in
23:05 69.3 °F 53.4 °F 29.8 in WNW 1 mph 3 mph 57 % 0 in
23:09 72.7 °F 61.9 °F 29.9 in NNE 3.5 mph 3.5 mph 69 % 0 in
23:14 72.7 °F 61.9 °F 29.9 in ESE 2.3 mph 2.3 mph 69 % 0 in
23:15 69.1 °F 53.2 °F 29.8 in NW 1 mph 2 mph 57 % 0 in
23:19 72.5 °F 61.7 °F 29.9 in ENE 3.5 mph 3.5 mph 69 % 0 in
23:24 72.5 °F 61.7 °F 29.9 in East 2.6 mph 2.6 mph 69 % 0 in
23:25 68.7 °F 52.3 °F 29.9 in WNW 1 mph 3 mph 56 % 0 in
23:29 72.5 °F 62.2 °F 29.9 in NE 2.3 mph 2.3 mph 70 % 0 in
23:34 72.3 °F 62.1 °F 29.9 in East 1.6 mph 1.6 mph 70 % 0 in
23:35 68.2 °F 52 °F 29.9 in WNW 1 mph 3 mph 56 % 0 in
23:39 72.3 °F 62.1 °F 29.9 in ENE 2.9 mph 2.9 mph 70 % 0 in
23:44 72.3 °F 62.1 °F 29.9 in ENE 2.3 mph 2.3 mph 70 % 0 in
23:45 67.8 °F 52 °F 29.9 in North 2 mph 2 mph 57 % 0 in
23:49 72.1 °F 61.9 °F 29.9 in ENE 2.3 mph 2.3 mph 70 % 0 in
23:54 72.1 °F 61.9 °F 29.9 in NNE 3.5 mph 3.5 mph 70 % 0 in
23:55 67.5 °F 51.6 °F 29.9 in NE 1 mph 4 mph 57 % 0 in
23:59 72.1 °F 61.9 °F 29.9 in ENE 2.3 mph 2.3 mph 70 % 0 in
Meteo Sesrovires
Elogis d' Weather Underground - 3.75 mb

Guio original per  Jim McMurry - jmcmurry@mwt.net Adaptat per a la plantilla per  Wim van der Kuil - Leuven-Template.eu

Trobareu la nostra informacio del temps tambe a:

Weather Underground

AWEKAS